createdAt,value
2022-10-13T00:01:24.062Z,4.78
2022-10-13T00:03:53.795Z,4.77
2022-10-13T00:06:26.478Z,4.77
2022-10-13T00:08:54.932Z,4.75
2022-10-13T00:11:27.631Z,4.75
2022-10-13T00:14:02.189Z,4.74
2022-10-13T00:16:32.725Z,4.72
2022-10-13T00:19:01.087Z,4.71
2022-10-13T00:21:29.780Z,4.70
2022-10-13T00:23:58.206Z,4.69
2022-10-13T00:26:27.344Z,4.69
2022-10-13T00:28:56.843Z,4.66
2022-10-13T00:31:31.260Z,4.64
2022-10-13T00:34:01.195Z,4.62
2022-10-13T00:36:30.613Z,4.61
2022-10-13T00:38:59.487Z,4.59
2022-10-13T00:41:27.812Z,4.57
2022-10-13T00:43:57.920Z,4.55
2022-10-13T00:46:33.559Z,4.54
2022-10-13T00:49:09.574Z,4.53
2022-10-13T00:51:46.024Z,4.51
2022-10-13T00:54:20.550Z,4.50
2022-10-13T00:56:51.536Z,4.49
2022-10-13T00:59:29.108Z,4.48
2022-10-13T01:02:00.095Z,4.46
2022-10-13T01:04:40.086Z,4.44
2022-10-13T01:07:10.788Z,4.43
2022-10-13T01:09:38.981Z,4.40
2022-10-13T01:12:33.182Z,4.38
2022-10-13T01:15:22.663Z,4.36
2022-10-13T01:18:17.093Z,4.33
2022-10-13T01:21:25.786Z,4.30
2022-10-13T01:24:27.284Z,4.26
2022-10-13T01:27:08.208Z,4.24
2022-10-13T01:30:03.655Z,4.23
2022-10-13T01:33:14.951Z,4.20
2022-10-13T01:36:26.438Z,4.18
2022-10-13T01:39:04.703Z,4.16
2022-10-13T01:41:42.821Z,4.16
2022-10-13T01:44:31.361Z,4.16
2022-10-13T01:47:02.958Z,4.15
2022-10-13T01:49:35.877Z,4.15
2022-10-13T01:52:13.585Z,4.15
2022-10-13T01:54:41.958Z,4.14
2022-10-13T01:57:34.980Z,4.14
2022-10-13T02:00:17.333Z,4.14
2022-10-13T02:03:08.756Z,4.14
2022-10-13T02:05:57.765Z,4.13
2022-10-13T02:08:58.939Z,4.13
2022-10-13T02:11:27.876Z,4.12
2022-10-13T02:14:10.105Z,4.11
2022-10-13T02:16:45.817Z,4.11
2022-10-13T02:19:18.388Z,4.09
2022-10-13T02:21:47.997Z,4.09
2022-10-13T02:24:16.658Z,4.08
2022-10-13T02:26:45.849Z,4.07
2022-10-13T02:29:17.311Z,4.06
2022-10-13T02:31:46.665Z,4.05
2022-10-13T02:34:15.962Z,4.04
2022-10-13T02:36:44.285Z,4.04
2022-10-13T02:39:12.872Z,4.03
2022-10-13T02:41:41.263Z,4.02
2022-10-13T02:44:09.821Z,4.01
2022-10-13T02:46:38.051Z,4.00
2022-10-13T02:49:06.245Z,3.99
2022-10-13T02:51:39.688Z,3.98
2022-10-13T02:54:08.705Z,3.98
2022-10-13T02:56:36.920Z,3.96
2022-10-13T02:59:05.318Z,3.94
2022-10-13T03:01:33.580Z,3.92
2022-10-13T03:04:01.905Z,3.91
2022-10-13T03:06:30.252Z,3.90
2022-10-13T03:08:59.361Z,3.89
2022-10-13T03:11:27.731Z,3.88
2022-10-13T03:14:14.097Z,3.91
2022-10-13T03:16:42.326Z,3.88
2022-10-13T03:19:11.185Z,3.87
2022-10-13T03:21:39.756Z,3.86
2022-10-13T03:24:08.269Z,3.86
2022-10-13T03:26:36.584Z,3.85
2022-10-13T03:29:04.883Z,3.85
2022-10-13T03:31:33.331Z,3.83
2022-10-13T03:34:03.137Z,3.81
2022-10-13T03:36:31.557Z,3.80
2022-10-13T03:41:33.912Z,3.80
2022-10-13T03:44:02.275Z,3.78
2022-10-13T03:46:31.759Z,3.76
2022-10-13T03:48:59.983Z,3.75
2022-10-13T03:51:28.505Z,3.73
2022-10-13T03:53:57.311Z,3.72
2022-10-13T03:56:27.844Z,3.72
2022-10-13T03:58:59.355Z,3.71
2022-10-13T04:01:30.579Z,3.70
2022-10-13T04:04:04.239Z,3.69
2022-10-13T04:06:32.494Z,3.67
2022-10-13T04:09:01.397Z,3.64
2022-10-13T04:11:30.091Z,3.63
2022-10-13T04:13:58.910Z,3.62
2022-10-13T04:16:30.597Z,3.60
2022-10-13T04:19:02.877Z,3.58
2022-10-13T04:21:34.387Z,3.56
2022-10-13T04:24:05.077Z,3.55
2022-10-13T04:26:36.786Z,3.54
2022-10-13T04:29:07.742Z,3.54
2022-10-13T04:31:37.205Z,3.54
2022-10-13T04:34:05.658Z,3.52
2022-10-13T04:36:33.931Z,3.50
2022-10-13T04:39:02.402Z,3.49
2022-10-13T04:41:30.675Z,3.48
2022-10-13T04:44:02.274Z,3.47
2022-10-13T04:46:30.876Z,3.46
2022-10-13T04:48:59.153Z,3.45
2022-10-13T04:51:27.459Z,3.45
2022-10-13T04:54:02.583Z,3.45
2022-10-13T04:56:31.429Z,3.45
2022-10-13T04:59:00.150Z,3.45
2022-10-13T05:01:28.967Z,3.44
2022-10-13T05:04:01.434Z,3.44
2022-10-13T05:06:35.143Z,3.45
2022-10-13T05:09:04.356Z,3.47
2022-10-13T05:11:33.379Z,3.50
2022-10-13T05:14:02.589Z,3.52
2022-10-13T05:16:31.282Z,3.53
2022-10-13T05:18:59.503Z,3.56
2022-10-13T05:21:29.687Z,3.58
2022-10-13T05:23:59.973Z,3.61
2022-10-13T05:26:32.118Z,3.64
2022-10-13T05:29:02.509Z,3.65
2022-10-13T05:31:32.963Z,3.69
2022-10-13T05:34:02.950Z,3.71
2022-10-13T05:36:34.867Z,3.75
2022-10-13T05:39:06.466Z,3.78
2022-10-13T05:41:34.975Z,3.80
2022-10-13T05:44:07.780Z,3.84
2022-10-13T05:46:36.906Z,3.87
2022-10-13T05:49:05.227Z,3.92
2022-10-13T05:51:50.634Z,3.97
2022-10-13T05:54:24.866Z,4.03
2022-10-13T05:57:01.184Z,4.07
2022-10-13T05:59:35.330Z,4.13
2022-10-13T06:02:07.945Z,4.18
2022-10-13T06:04:43.410Z,4.24
2022-10-13T06:07:12.996Z,4.32
2022-10-13T06:09:42.003Z,4.38
2022-10-13T06:12:10.894Z,4.46
2022-10-13T06:14:39.581Z,4.52
2022-10-13T06:17:08.404Z,4.58
2022-10-13T06:19:36.654Z,4.66
2022-10-13T06:22:04.939Z,4.74
2022-10-13T06:24:33.211Z,4.81
2022-10-13T06:27:01.445Z,4.90
2022-10-13T06:29:29.708Z,4.98
2022-10-13T06:31:57.910Z,5.07
2022-10-13T06:34:26.208Z,5.15
2022-10-13T06:36:54.462Z,5.25
2022-10-13T06:39:22.740Z,5.34
2022-10-13T06:41:51.068Z,5.43
2022-10-13T06:44:19.276Z,5.52
2022-10-13T06:46:47.523Z,5.61
2022-10-13T06:49:15.930Z,5.71
2022-10-13T06:51:44.192Z,5.80
2022-10-13T06:54:12.471Z,5.89
2022-10-13T06:56:40.724Z,6.00
2022-10-13T06:59:08.942Z,6.10
2022-10-13T07:01:41.356Z,6.19
2022-10-13T07:04:10.126Z,6.30
2022-10-13T07:06:38.950Z,6.40
2022-10-13T07:09:08.678Z,6.50
2022-10-13T07:11:36.936Z,6.60
2022-10-13T07:14:05.193Z,6.72
2022-10-13T07:16:33.477Z,6.83
2022-10-13T07:19:01.773Z,6.95
2022-10-13T07:21:30.016Z,7.07
2022-10-13T07:23:58.302Z,7.18
2022-10-13T07:26:26.578Z,7.31
2022-10-13T07:28:54.956Z,7.43
2022-10-13T07:31:23.303Z,7.54
2022-10-13T07:33:51.746Z,7.67
2022-10-13T07:36:20.365Z,7.78
2022-10-13T07:38:48.733Z,7.90
2022-10-13T07:41:17.562Z,8.02
2022-10-13T07:43:45.975Z,8.15
2022-10-13T07:46:15.438Z,8.26
2022-10-13T07:48:43.832Z,8.38
2022-10-13T07:51:13.578Z,8.50
2022-10-13T07:53:42.958Z,8.64
2022-10-13T07:56:13.367Z,8.79
2022-10-13T07:58:46.463Z,8.94
2022-10-13T08:01:16.657Z,9.11
2022-10-13T08:03:49.091Z,9.29
2022-10-13T08:06:19.272Z,9.48
2022-10-13T08:08:47.516Z,9.66
2022-10-13T08:11:17.344Z,9.85
2022-10-13T08:13:51.570Z,10.05
2022-10-13T08:16:19.947Z,10.26
2022-10-13T08:18:48.874Z,10.47
2022-10-13T08:24:15.558Z,10.94
2022-10-13T08:26:46.426Z,11.17
2022-10-13T08:29:23.537Z,11.38
2022-10-13T08:31:53.910Z,11.62
2022-10-13T08:34:24.722Z,11.83
2022-10-13T08:36:56.372Z,12.07
2022-10-13T08:39:25.478Z,12.31
2022-10-13T08:41:57.870Z,12.55
2022-10-13T08:45:28.928Z,12.81
2022-10-13T08:47:48.914Z,13.15
2022-10-13T08:50:23.283Z,13.44
2022-10-13T08:53:03.550Z,13.72
2022-10-13T08:55:59.355Z,14.02
2022-10-13T08:58:31.568Z,14.35
2022-10-13T09:01:09.177Z,14.59
2022-10-13T09:04:16.758Z,14.90
2022-10-13T09:07:15.792Z,15.26
2022-10-13T09:09:44.181Z,15.62
2022-10-13T09:12:13.507Z,15.90
2022-10-13T09:14:41.866Z,16.18
2022-10-13T09:17:26.537Z,16.46
2022-10-13T09:19:57.923Z,16.80
2022-10-13T09:22:36.117Z,17.08
2022-10-13T09:25:07.090Z,17.39
2022-10-13T09:27:53.307Z,17.68
2022-10-13T09:30:41.139Z,18.00
2022-10-13T09:33:09.280Z,18.29
2022-10-13T09:35:40.060Z,18.51
2022-10-13T09:38:15.635Z,18.70
2022-10-13T09:41:16.153Z,18.95
2022-10-13T09:44:03.343Z,19.24
2022-10-13T09:46:34.238Z,19.50
2022-10-13T09:49:21.194Z,19.68
2022-10-13T09:51:49.481Z,19.97
2022-10-13T09:54:51.477Z,20.21
2022-10-13T09:57:34.422Z,20.43
2022-10-13T10:00:16.474Z,20.72
2022-10-13T10:03:02.973Z,20.96
2022-10-13T10:06:06.727Z,21.18
2022-10-13T10:09:04.707Z,21.47
2022-10-13T10:11:46.568Z,21.79
2022-10-13T10:14:36.327Z,22.10
2022-10-13T10:17:16.039Z,22.38
2022-10-13T10:20:01.415Z,22.65
2022-10-13T10:23:17.535Z,22.85
2022-10-13T10:25:52.429Z,23.03
2022-10-13T10:28:54.242Z,23.30
2022-10-13T10:31:36.151Z,23.58
2022-10-13T10:34:35.407Z,23.83
2022-10-13T10:37:22.744Z,24.07
2022-10-13T10:40:14.610Z,24.32
2022-10-13T10:42:57.939Z,24.57
2022-10-13T10:45:31.317Z,24.82
2022-10-13T10:48:07.158Z,25.04
2022-10-13T10:50:35.735Z,25.07
2022-10-13T10:53:34.771Z,25.17
2022-10-13T10:56:45.931Z,25.39
2022-10-13T10:59:36.458Z,25.46
2022-10-13T11:02:07.305Z,25.62
2022-10-13T11:04:47.604Z,25.79
2022-10-13T11:07:24.721Z,25.95
2022-10-13T11:09:53.027Z,26.13
2022-10-13T11:12:21.710Z,26.30
2022-10-13T11:15:09.884Z,26.47
2022-10-13T11:17:41.542Z,26.63
2022-10-13T11:20:21.953Z,26.77
2022-10-13T11:22:59.289Z,26.89
2022-10-13T11:25:47.610Z,26.98
2022-10-13T11:28:22.061Z,27.07
2022-10-13T11:31:17.448Z,27.22
2022-10-13T11:33:48.118Z,27.33
2022-10-13T11:36:51.670Z,27.45
2022-10-13T11:39:28.671Z,27.58
2022-10-13T11:42:11.974Z,27.65
2022-10-13T11:45:02.599Z,27.75
2022-10-13T11:48:03.209Z,27.88
2022-10-13T11:50:59.204Z,28.02
2022-10-13T11:53:41.342Z,28.20
2022-10-13T11:56:32.959Z,28.41
2022-10-13T11:59:02.292Z,28.57
2022-10-13T12:01:30.547Z,28.61
2022-10-13T12:03:58.799Z,28.70
2022-10-13T12:06:34.438Z,28.83
2022-10-13T12:09:15.850Z,28.99
2022-10-13T12:11:45.191Z,29.06
2022-10-13T12:14:27.074Z,29.12
2022-10-13T12:16:57.532Z,29.18
2022-10-13T12:19:30.091Z,29.15
2022-10-13T12:22:01.520Z,29.11
2022-10-13T12:24:30.848Z,29.15
2022-10-13T12:26:59.369Z,29.24
2022-10-13T12:29:33.562Z,29.37
2022-10-13T12:32:29.643Z,29.49
2022-10-13T12:35:24.984Z,29.63
2022-10-13T12:37:54.964Z,29.69
2022-10-13T12:40:24.172Z,29.65
2022-10-13T12:42:53.183Z,29.56
2022-10-13T12:45:28.162Z,29.39
2022-10-13T12:47:56.419Z,29.12
2022-10-13T12:50:27.619Z,29.15
2022-10-13T12:53:08.859Z,29.28
2022-10-13T12:55:48.302Z,29.30
2022-10-13T12:58:27.312Z,29.33
2022-10-13T13:01:24.550Z,29.18
2022-10-13T13:04:00.473Z,28.96
2022-10-13T13:06:34.460Z,29.08
2022-10-13T13:09:20.122Z,29.21
2022-10-13T13:11:49.519Z,29.24
2022-10-13T13:14:39.395Z,29.06
2022-10-13T13:17:45.362Z,28.74
2022-10-13T13:20:28.268Z,28.36
2022-10-13T13:22:57.069Z,28.05
2022-10-13T13:25:25.879Z,27.78
2022-10-13T13:27:54.458Z,27.47
2022-10-13T13:30:24.328Z,27.12
2022-10-13T13:32:52.600Z,26.90
2022-10-13T13:35:20.884Z,26.91
2022-10-13T13:37:51.376Z,26.87
2022-10-13T13:40:23.574Z,26.93
2022-10-13T13:42:52.423Z,27.17
2022-10-13T13:45:22.872Z,27.11
2022-10-13T13:47:51.601Z,26.98
2022-10-13T13:50:28.645Z,27.12
2022-10-13T13:52:57.723Z,27.40
2022-10-13T13:55:27.887Z,27.79
2022-10-13T13:57:57.356Z,27.91
2022-10-13T14:00:25.756Z,27.94
2022-10-13T14:02:54.130Z,27.71
2022-10-13T14:05:22.518Z,27.38
2022-10-13T14:07:58.011Z,27.00
2022-10-13T14:10:26.729Z,26.68
2022-10-13T14:12:55.054Z,26.36
2022-10-13T14:15:27.238Z,26.07
2022-10-13T14:17:57.843Z,25.78
2022-10-13T14:20:26.092Z,25.59
2022-10-13T14:22:54.554Z,25.79
2022-10-13T14:25:22.958Z,26.27
2022-10-13T14:27:51.301Z,26.78
2022-10-13T14:30:19.626Z,27.22
2022-10-13T14:32:48.039Z,27.61
2022-10-13T14:35:16.425Z,27.97
2022-10-13T14:37:44.885Z,28.13
2022-10-13T14:40:13.147Z,28.27
2022-10-13T14:42:42.550Z,28.53
2022-10-13T14:45:13.053Z,28.70
2022-10-13T14:47:42.051Z,28.66
2022-10-13T14:50:10.730Z,28.25
2022-10-13T14:52:38.958Z,27.66
2022-10-13T14:55:07.763Z,27.06
2022-10-13T14:57:35.999Z,26.43
2022-10-13T15:00:04.869Z,25.82
2022-10-13T15:02:33.048Z,25.24
2022-10-13T15:05:01.522Z,24.75
2022-10-13T15:07:29.731Z,24.29
2022-10-13T15:10:05.407Z,23.93
2022-10-13T15:12:34.540Z,23.54
2022-10-13T15:15:03.343Z,23.14
2022-10-13T15:17:33.311Z,22.79
2022-10-13T15:20:01.625Z,22.43
2022-10-13T15:22:30.001Z,22.12
2022-10-13T15:24:58.277Z,21.78
2022-10-13T15:27:26.597Z,21.47
2022-10-13T15:29:55.016Z,21.17
2022-10-13T15:32:23.579Z,20.87
2022-10-13T15:34:52.097Z,20.59
2022-10-13T15:37:20.344Z,20.32
2022-10-13T15:39:51.951Z,20.09
2022-10-13T15:42:23.104Z,19.80
2022-10-13T15:45:08.926Z,19.57
2022-10-13T15:47:38.207Z,19.28
2022-10-13T15:50:08.368Z,19.04
2022-10-13T15:52:40.602Z,18.82
2022-10-13T15:55:11.786Z,18.63
2022-10-13T15:57:40.112Z,18.45
2022-10-13T16:00:11.807Z,18.30
2022-10-13T16:02:41.878Z,18.14
2022-10-13T16:05:13.883Z,17.95
2022-10-13T16:07:42.339Z,17.78
2022-10-13T16:10:13.487Z,17.60
2022-10-13T16:12:49.230Z,17.45
2022-10-13T16:15:18.730Z,17.28
2022-10-13T16:17:46.993Z,17.12
2022-10-13T16:20:15.309Z,16.97
2022-10-13T16:22:43.746Z,16.82
2022-10-13T16:25:12.145Z,16.67
2022-10-13T16:27:44.091Z,16.51
2022-10-13T16:30:13.206Z,16.36
2022-10-13T16:32:41.564Z,16.22
2022-10-13T16:35:10.314Z,16.08
2022-10-13T16:37:38.662Z,15.94
2022-10-13T16:40:07.922Z,15.80
2022-10-13T16:42:36.147Z,15.68
2022-10-13T16:45:05.450Z,15.55
2022-10-13T16:47:33.695Z,15.42
2022-10-13T16:50:04.867Z,15.29
2022-10-13T16:52:33.118Z,15.16
2022-10-13T16:55:01.462Z,15.02
2022-10-13T16:57:30.392Z,14.89
2022-10-13T16:59:58.602Z,14.77
2022-10-13T17:02:26.802Z,14.65
2022-10-13T17:04:55.079Z,14.53
2022-10-13T17:07:23.677Z,14.42
2022-10-13T17:09:52.018Z,14.31
2022-10-13T17:12:20.311Z,14.23
2022-10-13T17:14:48.867Z,14.15
2022-10-13T17:17:17.100Z,14.07
2022-10-13T17:19:45.368Z,14.01
2022-10-13T17:22:13.663Z,13.94
2022-10-13T17:24:47.915Z,13.88
2022-10-13T17:27:16.808Z,13.83
2022-10-13T17:29:45.112Z,13.78
2022-10-13T17:32:13.418Z,13.74
2022-10-13T17:34:41.638Z,13.68
2022-10-13T17:37:09.979Z,13.63
2022-10-13T17:39:40.963Z,13.58
2022-10-13T17:42:09.209Z,13.53
2022-10-13T17:44:37.426Z,13.49
2022-10-13T17:47:05.731Z,13.45
2022-10-13T17:49:33.963Z,13.40
2022-10-13T17:52:02.170Z,13.35
2022-10-13T18:08:22.395Z,13.34
2022-10-13T18:11:07.489Z,13.22
2022-10-13T18:13:37.491Z,13.10
2022-10-13T18:16:16.896Z,12.99
2022-10-13T18:18:46.249Z,12.87
2022-10-13T18:21:18.224Z,12.76
2022-10-13T18:23:46.719Z,12.66
2022-10-13T18:26:18.647Z,12.57
2022-10-13T18:28:49.166Z,12.48
2022-10-13T18:31:20.042Z,12.38
2022-10-13T18:33:49.013Z,12.31
2022-10-13T18:36:31.258Z,12.24
2022-10-13T18:39:08.038Z,12.17
2022-10-13T18:41:38.240Z,12.10
2022-10-13T18:44:07.105Z,12.03
2022-10-13T18:46:37.677Z,11.97
2022-10-13T18:49:08.781Z,11.91
2022-10-13T18:51:37.168Z,11.82
2022-10-13T18:54:06.638Z,11.71
2022-10-13T18:56:39.215Z,11.60
2022-10-13T18:59:10.316Z,11.50
2022-10-13T19:01:40.829Z,11.41
2022-10-13T19:04:14.320Z,11.34
2022-10-13T19:06:44.089Z,11.25
2022-10-13T19:09:15.126Z,11.19
2022-10-13T19:11:43.741Z,11.12
2022-10-13T19:14:13.551Z,11.03
2022-10-13T19:16:44.183Z,10.94
2022-10-13T19:19:13.018Z,10.85
2022-10-13T19:21:42.049Z,10.77
2022-10-13T19:24:10.775Z,10.71
2022-10-13T19:26:39.259Z,10.65
2022-10-13T19:29:12.585Z,10.59
2022-10-13T19:31:43.041Z,10.53
2022-10-13T19:34:12.683Z,10.48
2022-10-13T19:36:46.696Z,10.44
2022-10-13T19:39:24.221Z,10.41
2022-10-13T19:41:55.659Z,10.38
2022-10-13T19:44:25.416Z,10.37
2022-10-13T19:46:54.211Z,10.36
2022-10-13T19:49:26.004Z,10.34
2022-10-13T19:51:54.891Z,10.33
2022-10-13T19:54:23.910Z,10.32
2022-10-13T19:56:52.959Z,10.32
2022-10-13T19:59:21.349Z,10.33
2022-10-13T20:01:49.842Z,10.33
2022-10-13T20:04:20.565Z,10.34
2022-10-13T20:06:50.512Z,10.33
2022-10-13T20:09:20.321Z,10.34
2022-10-13T20:11:51.756Z,10.34
2022-10-13T20:14:20.662Z,10.35
2022-10-13T20:16:49.226Z,10.37
2022-10-13T20:19:19.651Z,10.37
2022-10-13T20:21:48.172Z,10.37
2022-10-13T20:24:16.562Z,10.37
2022-10-13T20:26:45.049Z,10.37
2022-10-13T20:29:13.397Z,10.37
2022-10-13T20:31:44.011Z,10.38
2022-10-13T20:34:12.256Z,10.37
2022-10-13T20:36:40.622Z,10.37
2022-10-13T20:39:09.211Z,10.37
2022-10-13T20:41:37.744Z,10.37
2022-10-13T20:44:06.829Z,10.37
2022-10-13T20:46:35.355Z,10.38
2022-10-13T20:49:12.671Z,10.38
2022-10-13T20:51:42.775Z,10.39
2022-10-13T20:54:14.825Z,10.40
2022-10-13T20:56:43.534Z,10.41
2022-10-13T20:59:14.818Z,10.41
2022-10-13T21:01:43.704Z,10.43
2022-10-13T21:04:12.523Z,10.45
2022-10-13T21:06:42.303Z,10.46
2022-10-13T21:09:11.692Z,10.48
2022-10-13T21:11:40.239Z,10.49
2022-10-13T21:14:09.758Z,10.50
2022-10-13T21:16:40.090Z,10.50
2022-10-13T21:19:09.541Z,10.51
2022-10-13T21:21:38.238Z,10.50
2022-10-13T21:24:08.473Z,10.48
2022-10-13T21:26:38.328Z,10.46
2022-10-13T21:29:06.858Z,10.45
2022-10-13T21:31:35.561Z,10.45
2022-10-13T21:34:04.315Z,10.44
2022-10-13T21:36:33.732Z,10.41
2022-10-13T21:39:05.998Z,10.38
2022-10-13T21:41:34.988Z,10.37
2022-10-13T21:44:03.676Z,10.33
2022-10-13T21:46:34.825Z,10.28
2022-10-13T21:49:06.484Z,10.23
2022-10-13T21:51:40.403Z,10.19
2022-10-13T21:54:12.759Z,10.14
2022-10-13T21:56:42.295Z,10.10
2022-10-13T21:59:12.767Z,10.08
2022-10-13T22:01:42.407Z,10.06
2022-10-13T22:04:14.013Z,10.04
2022-10-13T22:06:42.367Z,10.01
2022-10-13T22:09:11.240Z,9.98
2022-10-13T22:11:40.729Z,9.97
2022-10-13T22:14:09.162Z,9.96
2022-10-13T22:16:44.741Z,9.95
2022-10-13T22:19:14.011Z,9.92
2022-10-13T22:21:46.932Z,9.89
2022-10-13T22:24:19.299Z,9.87
2022-10-13T22:26:49.317Z,9.83
2022-10-13T22:29:22.202Z,9.80
2022-10-13T22:31:56.551Z,9.75
2022-10-13T22:34:24.934Z,9.73
2022-10-13T22:36:54.680Z,9.71
2022-10-13T22:39:23.541Z,9.69
2022-10-13T22:41:51.781Z,9.66
2022-10-13T22:44:20.096Z,9.64
2022-10-13T22:46:48.395Z,9.61
2022-10-13T22:49:16.792Z,9.58
2022-10-13T22:51:45.053Z,9.55
2022-10-13T22:54:13.271Z,9.53
2022-10-13T22:56:42.093Z,9.49
2022-10-13T22:59:11.992Z,9.48
2022-10-13T23:01:40.652Z,9.45
2022-10-13T23:04:09.719Z,9.43
2022-10-13T23:06:38.086Z,9.41
2022-10-13T23:09:12.134Z,9.38
2022-10-13T23:11:40.980Z,9.34
2022-10-13T23:14:09.825Z,9.29
2022-10-13T23:16:38.739Z,9.26
2022-10-13T23:19:07.071Z,9.24
2022-10-13T23:21:35.662Z,9.22
2022-10-13T23:24:06.926Z,9.21
2022-10-13T23:26:35.898Z,9.18
2022-10-13T23:29:05.558Z,9.14
2022-10-13T23:31:33.859Z,9.11
2022-10-13T23:34:02.330Z,9.08
2022-10-13T23:36:32.626Z,9.07
2022-10-13T23:39:06.787Z,9.06
2022-10-13T23:41:38.564Z,9.05
2022-10-13T23:44:06.937Z,9.04
2022-10-13T23:46:35.289Z,9.02
2022-10-13T23:49:04.159Z,9.01
2022-10-13T23:51:32.407Z,8.99
2022-10-13T23:54:00.649Z,8.99
2022-10-13T23:56:28.972Z,8.99
2022-10-13T23:58:57.188Z,8.98
